Time;durP1;ratioP1;P1;durP2;ratioP2;P2;SDS_P1;SDS_P2;PMS_P1;PMS_P2;Temp;Humidity;BMP_temperature;BMP_pressure;BME280_temperature;BME280_humidity;BME280_pressure;Samples;Min_cycle;Max_cycle;Signal;HPM_P1;HPM_P2
2022/07/25 00:02:00;;;;;;;9.17;7.87;;;29.70;47.70;;;;;;5072661;28;20515;-75
2022/07/25 00:04:30;;;;;;;8.80;7.83;;;29.60;47.80;;;;;;5072085;28;20461;-75
2022/07/25 00:06:58;;;;;;;8.93;8.03;;;29.80;47.50;;;;;;5058069;28;20427;-75
2022/07/25 00:09:26;;;;;;;10.43;8.60;;;29.70;47.40;;;;;;5063324;28;20446;-75
2022/07/25 00:11:54;;;;;;;8.93;8.13;;;29.70;47.40;;;;;;5072886;28;20469;-75
2022/07/25 00:14:22;;;;;;;10.30;7.97;;;29.80;47.20;;;;;;5072520;28;20448;-75
2022/07/25 00:16:50;;;;;;;10.40;8.27;;;29.70;47.60;;;;;;5071570;28;20457;-75
2022/07/25 00:19:18;;;;;;;9.20;8.40;;;29.80;47.40;;;;;;5065227;28;20508;-75
2022/07/25 00:21:47;;;;;;;8.00;7.30;;;29.80;47.40;;;;;;5052822;28;21007;-75
2022/07/25 00:24:15;;;;;;;8.40;7.70;;;29.80;47.10;;;;;;5052059;28;20447;-75
2022/07/25 00:26:42;;;;;;;11.80;8.67;;;29.90;47.40;;;;;;5064942;28;20416;-75
2022/07/25 00:29:10;;;;;;;11.83;7.90;;;29.90;47.10;;;;;;5072286;28;20948;-76
2022/07/25 00:31:38;;;;;;;10.80;7.90;;;29.80;47.10;;;;;;5072593;28;20422;-75
2022/07/25 00:34:06;;;;;;;12.53;7.93;;;29.80;47.40;;;;;;5070730;28;20473;-75
2022/07/25 00:36:35;;;;;;;8.27;7.50;;;29.80;47.20;;;;;;5063171;28;20437;-76
2022/07/25 00:39:04;;;;;;;8.30;7.13;;;29.80;47.20;;;;;;5066394;28;20426;-75
2022/07/25 00:41:32;;;;;;;8.53;7.63;;;29.90;47.40;;;;;;5051815;28;20415;-76
2022/07/25 00:43:59;;;;;;;8.67;7.90;;;29.90;47.40;;;;;;5059360;28;20552;-75
2022/07/25 00:46:27;;;;;;;8.43;7.67;;;30.00;47.20;;;;;;5071614;28;20497;-75
2022/07/25 00:48:55;;;;;;;8.77;7.87;;;30.00;47.10;;;;;;5072578;28;20441;-75
2022/07/25 00:51:23;;;;;;;11.97;7.60;;;30.00;47.10;;;;;;5052037;28;20525;-75
2022/07/25 00:53:51;;;;;;;8.37;7.73;;;30.00;47.20;;;;;;5062543;28;20959;-75
2022/07/25 00:56:20;;;;;;;7.50;6.90;;;29.90;47.30;;;;;;5070315;28;20480;-75
2022/07/25 00:58:48;;;;;;;8.00;7.20;;;30.00;47.30;;;;;;5066724;28;20466;-77
2022/07/25 01:01:16;;;;;;;9.43;7.73;;;30.00;46.80;;;;;;5070499;28;20528;-75
2022/07/25 01:03:43;;;;;;;9.27;8.10;;;30.00;47.20;;;;;;5070624;28;20424;-76
2022/07/25 01:06:11;;;;;;;10.07;8.40;;;30.00;47.00;;;;;;5069950;28;20405;-76
2022/07/25 01:08:39;;;;;;;9.60;8.37;;;29.90;47.00;;;;;;5069940;28;20467;-76
2022/07/25 01:11:09;;;;;;;9.73;8.77;;;29.80;47.00;;;;;;5069713;28;20446;-76
2022/07/25 01:13:38;;;;;;;8.93;8.10;;;29.80;47.40;;;;;;5069929;28;20973;-76
2022/07/25 01:16:06;;;;;;;9.27;7.93;;;29.70;47.30;;;;;;5069979;28;20469;-76
2022/07/25 01:18:34;;;;;;;10.33;8.70;;;29.70;47.20;;;;;;5070262;28;20446;-76
2022/07/25 01:21:04;;;;;;;9.50;8.70;;;29.60;47.60;;;;;;5067925;28;20808;-75
2022/07/25 01:23:32;;;;;;;8.73;7.80;;;29.60;47.40;;;;;;5070252;28;20472;-76
2022/07/25 01:26:00;;;;;;;10.50;8.47;;;29.50;47.50;;;;;;5069405;28;20415;-76
2022/07/25 01:28:28;;;;;;;9.53;8.53;;;29.50;47.40;;;;;;5069386;28;20457;-76
2022/07/25 01:30:56;;;;;;;8.80;8.00;;;29.40;47.40;;;;;;5070018;28;20450;-75
2022/07/25 01:33:23;;;;;;;12.30;8.93;;;29.30;47.60;;;;;;5071175;28;20480;-75
2022/07/25 01:35:51;;;;;;;8.10;7.40;;;29.30;47.30;;;;;;5070598;28;20484;-76
2022/07/25 01:38:21;;;;;;;9.47;8.63;;;29.30;47.60;;;;;;5071482;28;20417;-76
2022/07/25 01:40:49;;;;;;;9.23;8.10;;;29.30;47.60;;;;;;5071262;28;20455;-76
2022/07/25 01:43:17;;;;;;;12.23;8.23;;;29.30;47.50;;;;;;5070874;28;20478;-75
2022/07/25 01:45:44;;;;;;;8.77;7.97;;;29.20;47.80;;;;;;5070427;28;20474;-76
2022/07/25 01:48:12;;;;;;;9.10;8.20;;;29.20;47.80;;;;;;5070435;28;20420;-75
2022/07/25 01:50:40;;;;;;;8.80;7.90;;;29.20;47.80;;;;;;5071258;28;20419;-75
2022/07/25 01:53:08;;;;;;;8.57;7.73;;;29.20;47.90;;;;;;5070832;28;20408;-75
2022/07/25 01:55:37;;;;;;;9.17;7.93;;;29.30;47.70;;;;;;5070394;28;20437;-75
2022/07/25 01:58:06;;;;;;;8.20;7.40;;;29.20;47.50;;;;;;5070857;28;20511;-75
2022/07/25 02:00:34;;;;;;;9.53;8.63;;;29.20;47.70;;;;;;5069720;28;20412;-75
2022/07/25 02:05:47;;;;;;;8.87;7.97;;;28.90;48.20;;;;;;5077394;28;20400;-75
2022/07/25 02:08:15;;;;;;;8.17;7.50;;;29.00;48.00;;;;;;5070692;28;20444;-75
2022/07/25 02:10:45;;;;;;;16.47;8.70;;;29.00;47.90;;;;;;5076300;28;20476;-75
2022/07/25 02:13:12;;;;;;;9.07;8.27;;;28.80;47.80;;;;;;5070844;28;20457;-76
2022/07/25 02:15:40;;;;;;;9.07;8.17;;;28.80;48.30;;;;;;5070097;28;20462;-76
2022/07/25 02:18:08;;;;;;;18.37;9.17;;;28.70;48.30;;;;;;5070723;28;20508;-76
2022/07/25 02:20:36;;;;;;;8.60;7.80;;;28.60;48.10;;;;;;5069927;28;20446;-76
2022/07/25 02:23:04;;;;;;;9.33;8.30;;;28.70;48.50;;;;;;5058112;28;20457;-76
2022/07/25 02:25:31;;;;;;;8.30;7.50;;;28.70;48.00;;;;;;5049664;28;20420;-76
2022/07/25 02:28:00;;;;;;;12.23;8.40;;;28.80;48.00;;;;;;5050592;28;20622;-76
2022/07/25 02:30:28;;;;;;;9.37;8.37;;;28.80;48.10;;;;;;5050425;28;20439;-76
2022/07/25 02:32:56;;;;;;;8.93;8.10;;;28.90;47.90;;;;;;5050592;28;20908;-76
2022/07/25 02:35:24;;;;;;;10.07;7.67;;;28.90;47.80;;;;;;5058416;28;20614;-76
2022/07/25 02:37:52;;;;;;;9.97;8.33;;;29.00;48.20;;;;;;5059434;28;20416;-76
2022/07/25 02:40:19;;;;;;;8.57;7.70;;;28.80;47.80;;;;;;5050367;28;20431;-76
2022/07/25 02:42:47;;;;;;;8.90;8.10;;;28.80;47.80;;;;;;5050085;28;20419;-76
2022/07/25 02:45:16;;;;;;;8.73;7.93;;;28.70;48.10;;;;;;5049811;28;20474;-76
2022/07/25 02:47:44;;;;;;;12.33;8.63;;;28.70;48.10;;;;;;5050325;28;20409;-76
2022/07/25 02:50:12;;;;;;;10.73;8.20;;;28.70;48.40;;;;;;5051860;28;20413;-76
2022/07/25 02:52:41;;;;;;;8.93;8.03;;;28.80;48.10;;;;;;5061675;28;20401;-76
2022/07/25 02:55:10;;;;;;;8.97;8.17;;;28.70;48.20;;;;;;5069644;28;20436;-76
2022/07/25 02:57:37;;;;;;;8.50;7.70;;;28.80;48.20;;;;;;5070613;28;20500;-76
2022/07/25 03:00:06;;;;;;;9.70;8.70;;;28.70;47.90;;;;;;5074588;28;20419;-76
2022/07/25 03:02:35;;;;;;;13.70;8.83;;;28.70;47.90;;;;;;5073975;28;20530;-76
2022/07/25 03:05:06;;;;;;;9.10;8.30;;;28.70;48.20;;;;;;5073535;28;20428;-76
2022/07/25 03:07:34;;;;;;;10.00;9.07;;;28.60;48.10;;;;;;5073651;28;20484;-76
2022/07/25 03:10:01;;;;;;;10.30;9.27;;;28.50;48.00;;;;;;5061469;28;20438;-76
2022/07/25 03:12:37;;;;;;;12.67;9.63;;;28.50;48.10;;;;;;5054356;28;20524;-75
2022/07/25 03:15:05;;;;;;;10.10;9.07;;;28.40;48.40;;;;;;5053428;28;20559;-76
2022/07/25 03:17:34;;;;;;;9.17;8.27;;;28.40;48.60;;;;;;5053971;28;20537;-76
2022/07/25 03:20:02;;;;;;;9.73;8.40;;;28.20;48.50;;;;;;5053975;28;20419;-76
2022/07/25 03:22:30;;;;;;;15.03;9.73;;;28.20;49.20;;;;;;5062180;28;20464;-76
2022/07/25 03:24:58;;;;;;;8.83;7.93;;;28.10;48.90;;;;;;5065065;28;20432;-76
2022/07/25 03:27:25;;;;;;;9.80;8.80;;;28.20;49.00;;;;;;5073779;28;20427;-76
2022/07/25 03:29:54;;;;;;;12.90;9.30;;;28.30;48.70;;;;;;5073634;28;20412;-76
2022/07/25 03:32:22;;;;;;;10.13;8.87;;;28.20;48.80;;;;;;5073942;28;20418;-76
2022/07/25 03:34:51;;;;;;;10.40;8.73;;;28.10;48.90;;;;;;5073243;28;20471;-76
2022/07/25 03:37:19;;;;;;;10.10;8.87;;;28.10;48.80;;;;;;5073759;28;20470;-76
2022/07/25 03:39:46;;;;;;;9.30;8.40;;;28.10;49.10;;;;;;5071051;28;20441;-76
2022/07/25 03:42:14;;;;;;;8.50;7.80;;;27.90;49.10;;;;;;5053509;28;20438;-76
2022/07/25 03:44:42;;;;;;;11.73;9.27;;;27.90;49.20;;;;;;5053489;28;20433;-76
2022/07/25 03:47:10;;;;;;;8.43;7.67;;;27.90;48.80;;;;;;5052930;28;20506;-76
2022/07/25 03:49:47;;;;;;;9.97;9.00;;;27.90;49.00;;;;;;5053594;28;20398;-76
2022/07/25 03:52:16;;;;;;;9.63;8.20;;;27.70;49.20;;;;;;5053333;28;20504;-76
2022/07/25 03:54:44;;;;;;;10.27;8.10;;;27.70;49.10;;;;;;5053201;28;20455;-76
2022/07/25 03:57:12;;;;;;;9.17;8.30;;;27.80;49.60;;;;;;5069746;28;20563;-76
2022/07/25 03:59:39;;;;;;;11.43;9.00;;;27.80;48.90;;;;;;5055531;28;20443;-76
2022/07/25 04:02:07;;;;;;;9.20;7.90;;;27.90;48.60;;;;;;5053315;28;20447;-76
2022/07/25 04:04:35;;;;;;;9.00;8.10;;;28.00;48.70;;;;;;5052983;28;20437;-76
2022/07/25 04:07:03;;;;;;;10.00;8.33;;;27.80;48.70;;;;;;5052331;28;20422;-76
2022/07/25 04:09:33;;;;;;;9.47;8.60;;;27.70;48.90;;;;;;5052108;28;20447;-76
2022/07/25 04:12:01;;;;;;;14.07;9.50;;;27.60;49.50;;;;;;5067787;28;20524;-76
2022/07/25 04:14:29;;;;;;;9.93;8.90;;;27.50;49.30;;;;;;5056852;28;20501;-76
2022/07/25 04:16:57;;;;;;;13.33;8.60;;;27.50;49.50;;;;;;5052255;28;20456;-76
2022/07/25 04:19:25;;;;;;;8.73;7.93;;;27.40;49.20;;;;;;5053004;28;20426;-76
2022/07/25 04:21:55;;;;;;;10.10;9.10;;;27.40;49.70;;;;;;5053090;28;20508;-76
2022/07/25 04:24:23;;;;;;;13.20;8.77;;;27.40;49.20;;;;;;5052624;28;20551;-76
2022/07/25 04:26:52;;;;;;;10.43;9.33;;;27.30;49.40;;;;;;5052079;28;20441;-76
2022/07/25 04:29:20;;;;;;;10.73;8.23;;;27.20;49.60;;;;;;5071283;28;20450;-76
2022/07/25 04:31:48;;;;;;;11.00;9.43;;;27.30;50.00;;;;;;5053943;28;20408;-76
2022/07/25 04:34:16;;;;;;;12.70;8.63;;;27.20;50.00;;;;;;5052724;28;20452;-76
2022/07/25 04:36:43;;;;;;;10.17;9.07;;;27.10;50.00;;;;;;5051738;28;20455;-76
2022/07/25 04:39:11;;;;;;;9.90;8.90;;;27.00;50.10;;;;;;5052461;28;20529;-77
2022/07/25 04:41:39;;;;;;;12.43;8.73;;;26.90;50.20;;;;;;5051998;28;20506;-76
2022/07/25 04:44:08;;;;;;;9.20;8.27;;;26.80;50.60;;;;;;5054622;28;20475;-76
2022/07/25 04:46:36;;;;;;;11.67;9.13;;;27.00;50.30;;;;;;5063295;28;20556;-76
2022/07/25 04:49:04;;;;;;;10.53;8.80;;;26.90;50.30;;;;;;5072171;28;20437;-76
2022/07/25 04:51:32;;;;;;;10.70;9.20;;;27.00;50.10;;;;;;5072403;28;20445;-76
2022/07/25 04:54:00;;;;;;;13.37;8.73;;;26.90;50.20;;;;;;5072636;28;20436;-76
2022/07/25 04:56:28;;;;;;;10.53;9.37;;;26.80;50.60;;;;;;5071482;28;20416;-76
2022/07/25 04:58:56;;;;;;;15.10;9.50;;;26.80;50.60;;;;;;5072230;28;20452;-77
2022/07/25 05:01:29;;;;;;;11.10;8.73;;;26.80;50.50;;;;;;5071324;28;20424;-76
2022/07/25 05:03:57;;;;;;;9.33;8.33;;;26.80;50.70;;;;;;5068231;28;20439;-76
2022/07/25 05:06:25;;;;;;;9.97;8.50;;;26.90;50.70;;;;;;5051149;28;20543;-76
2022/07/25 05:08:53;;;;;;;9.13;8.27;;;27.00;50.50;;;;;;5051515;28;20449;-76
2022/07/25 05:11:20;;;;;;;8.93;8.03;;;27.00;50.40;;;;;;5052073;28;20506;-76
2022/07/25 05:13:48;;;;;;;10.47;8.50;;;27.10;50.10;;;;;;5051874;28;20519;-76
2022/07/25 05:16:16;;;;;;;9.90;8.90;;;27.10;50.00;;;;;;5051357;28;20423;-76
2022/07/25 05:18:45;;;;;;;15.50;8.57;;;27.00;50.40;;;;;;5060495;28;20467;-76
2022/07/25 05:21:13;;;;;;;10.77;9.23;;;27.00;50.70;;;;;;5071774;28;20451;-76
2022/07/25 05:23:41;;;;;;;15.07;9.27;;;27.10;50.30;;;;;;5071484;28;20518;-76
2022/07/25 05:26:08;;;;;;;10.73;9.50;;;27.00;50.60;;;;;;5072746;28;20428;-76
2022/07/25 05:28:36;;;;;;;10.13;8.90;;;27.10;50.30;;;;;;5074408;28;20405;-76
2022/07/25 05:31:04;;;;;;;13.40;8.60;;;27.00;50.80;;;;;;5072007;28;20435;-76
2022/07/25 05:33:33;;;;;;;9.53;8.63;;;27.10;50.50;;;;;;5071529;28;20429;-76
2022/07/25 05:36:03;;;;;;;9.57;8.60;;;27.10;50.60;;;;;;5069667;28;20896;-76
2022/07/25 05:38:32;;;;;;;10.23;9.13;;;27.20;50.50;;;;;;5064355;28;20473;-78
2022/07/25 05:41:00;;;;;;;10.60;9.37;;;27.10;50.90;;;;;;5051580;28;20815;-77
2022/07/25 05:43:27;;;;;;;10.63;8.80;;;27.30;50.30;;;;;;5051471;28;20440;-76
2022/07/25 05:46:00;;;;;;;10.90;9.33;;;27.20;50.50;;;;;;5050931;28;20425;-76
2022/07/25 05:48:28;;;;;;;9.23;8.33;;;27.10;50.60;;;;;;5051609;28;20418;-76
2022/07/25 05:50:57;;;;;;;10.17;8.63;;;27.20;51.00;;;;;;5051424;28;20534;-76
2022/07/25 05:53:27;;;;;;;9.50;8.60;;;27.20;50.90;;;;;;5058571;28;20473;-76
2022/07/25 05:55:54;;;;;;;10.77;9.03;;;27.30;51.10;;;;;;5059627;28;20504;-76
2022/07/25 05:58:22;;;;;;;10.90;9.00;;;27.30;50.60;;;;;;5051423;28;20583;-76
2022/07/25 06:00:56;;;;;;;12.13;9.57;;;27.30;50.60;;;;;;5051213;28;20423;-76
2022/07/25 06:03:24;;;;;;;12.27;9.20;;;27.40;50.80;;;;;;5051125;28;20439;-76
2022/07/25 06:05:52;;;;;;;9.87;8.63;;;27.20;51.10;;;;;;5050533;28;20446;-76
2022/07/25 06:08:20;;;;;;;13.13;9.33;;;27.40;50.70;;;;;;5050990;28;20419;-76
2022/07/25 06:10:50;;;;;;;13.30;9.70;;;27.40;50.90;;;;;;5057137;28;20467;-76
2022/07/25 06:13:18;;;;;;;11.20;9.10;;;27.50;50.90;;;;;;5070511;28;20442;-76
2022/07/25 06:15:47;;;;;;;9.73;8.70;;;27.50;50.70;;;;;;5070113;28;20511;-76
2022/07/25 06:18:15;;;;;;;11.20;8.97;;;27.60;50.70;;;;;;5070984;28;20456;-76
2022/07/25 06:20:43;;;;;;;9.67;8.60;;;27.60;50.80;;;;;;5070784;28;20441;-77
2022/07/25 06:23:11;;;;;;;11.57;8.70;;;27.30;51.20;;;;;;5070709;28;20467;-77
2022/07/25 06:25:39;;;;;;;10.00;9.00;;;27.30;51.60;;;;;;5069869;28;20469;-77
2022/07/25 06:28:08;;;;;;;10.97;8.83;;;27.50;51.20;;;;;;5063118;28;20446;-76
2022/07/25 06:30:37;;;;;;;10.33;9.17;;;27.70;50.90;;;;;;5068085;28;20464;-77
2022/07/25 06:33:05;;;;;;;13.50;9.50;;;27.70;50.50;;;;;;5070143;28;20441;-76
2022/07/25 06:35:32;;;;;;;9.93;8.93;;;27.60;50.90;;;;;;5070290;28;20452;-76
2022/07/25 06:38:00;;;;;;;13.53;9.03;;;27.50;51.20;;;;;;5070490;28;20448;-77
2022/07/25 06:40:28;;;;;;;19.77;9.10;;;27.50;51.90;;;;;;5070531;28;20415;-77
2022/07/25 06:42:56;;;;;;;10.80;8.87;;;27.50;51.50;;;;;;5069759;28;20488;-77
2022/07/25 06:45:25;;;;;;;9.37;8.50;;;27.60;51.30;;;;;;5069745;28;20492;-77
2022/07/25 06:47:53;;;;;;;16.47;8.87;;;27.70;51.40;;;;;;5070768;28;20446;-76
2022/07/25 06:50:21;;;;;;;8.40;7.60;;;28.00;50.70;;;;;;5070794;28;20518;-76
2022/07/25 06:52:49;;;;;;;15.63;8.30;;;28.00;50.30;;;;;;5070601;28;20428;-76
2022/07/25 06:55:17;;;;;;;10.50;9.40;;;27.90;50.50;;;;;;5070364;28;20528;-76
2022/07/25 06:57:44;;;;;;;10.47;8.30;;;27.90;50.60;;;;;;5070510;28;20792;-77
2022/07/25 07:00:13;;;;;;;10.30;8.40;;;28.00;50.90;;;;;;5069868;28;20431;-77
2022/07/25 07:02:52;;;;;;;10.07;8.03;;;27.90;50.60;;;;;;5062578;28;20495;-77
2022/07/25 07:05:21;;;;;;;8.93;8.00;;;28.10;51.00;;;;;;5070230;28;20447;-77
2022/07/25 07:07:48;;;;;;;10.13;8.53;;;28.20;50.50;;;;;;5070494;28;20444;-76
2022/07/25 07:10:16;;;;;;;9.13;8.23;;;28.20;50.40;;;;;;5072234;28;20444;-76
2022/07/25 07:12:44;;;;;;;10.07;9.07;;;28.30;50.50;;;;;;5070519;28;20436;-77
2022/07/25 07:15:12;;;;;;;9.00;8.10;;;28.30;50.10;;;;;;5068830;28;20438;-77
2022/07/25 07:17:40;;;;;;;9.17;8.13;;;28.40;50.70;;;;;;5059862;28;20402;-77
2022/07/25 07:20:10;;;;;;;12.27;8.50;;;28.50;50.40;;;;;;5071817;28;20452;-77
2022/07/25 07:22:44;;;;;;;9.00;8.10;;;28.50;50.60;;;;;;5070462;28;20480;-77
2022/07/25 07:25:13;;;;;;;8.30;7.60;;;28.60;50.40;;;;;;5070116;28;20881;-77
2022/07/25 07:27:41;;;;;;;8.60;7.80;;;28.90;49.80;;;;;;5070216;28;20508;-77
2022/07/25 07:30:09;;;;;;;10.13;8.20;;;28.90;49.60;;;;;;5070053;28;20434;-77
2022/07/25 07:32:37;;;;;;;8.50;7.70;;;28.80;49.40;;;;;;5069356;28;20432;-77
2022/07/25 07:35:06;;;;;;;8.17;7.47;;;28.90;49.60;;;;;;5077509;28;20466;-81
2022/07/25 07:37:35;;;;;;;9.80;7.50;;;29.10;49.60;;;;;;5081824;28;20517;-81
2022/07/25 07:40:10;;;;;;;7.90;7.20;;;29.60;48.60;;;;;;5082971;28;20504;-81
2022/07/25 07:42:45;;;;;;;8.00;7.00;;;29.80;47.80;;;;;;5079548;28;20435;-81
2022/07/25 07:45:14;;;;;;;7.10;6.60;;;30.00;47.20;;;;;;5085109;28;20482;-81
2022/07/25 07:47:41;;;;;;;7.47;6.80;;;30.20;46.90;;;;;;5087694;28;20441;-81
2022/07/25 07:50:10;;;;;;;8.07;7.37;;;30.40;46.50;;;;;;5087243;28;20431;-81
2022/07/25 07:52:40;;;;;;;10.20;7.37;;;30.50;46.30;;;;;;5070806;28;20463;-81
2022/07/25 07:57:53;;;;;;;6.80;6.20;;;30.70;45.80;;;;;;5068929;28;21021;-81
2022/07/25 08:00:22;;;;;;;8.17;7.47;;;30.90;45.60;;;;;;5062916;28;20500;-82
2022/07/25 08:02:51;;;;;;;7.80;6.30;;;31.00;45.30;;;;;;5076660;28;20513;-81
2022/07/25 08:05:23;;;;;;;7.40;6.67;;;31.10;45.10;;;;;;5083208;28;20427;-80
2022/07/25 08:07:52;;;;;;;6.80;6.20;;;31.20;45.00;;;;;;5084373;28;20496;-80
2022/07/25 08:10:21;;;;;;;7.53;6.97;;;31.30;44.80;;;;;;5077634;28;20441;-80
2022/07/25 08:12:48;;;;;;;7.30;6.70;;;31.40;44.60;;;;;;5086796;28;20532;-80
2022/07/25 08:15:17;;;;;;;6.70;6.20;;;31.50;44.60;;;;;;5084704;28;20437;-81
2022/07/25 08:17:44;;;;;;;6.93;6.33;;;31.60;44.40;;;;;;5086528;28;20481;-80
2022/07/25 08:20:12;;;;;;;7.30;6.70;;;31.70;44.20;;;;;;5084887;28;20505;-81
2022/07/25 08:23:02;;;;;;;7.27;6.23;;;31.90;44.00;;;;;;5083614;28;20421;-80
2022/07/25 08:25:30;;;;;;;6.03;5.63;;;32.00;43.90;;;;;;5071076;28;20513;-81
2022/07/25 08:27:58;;;;;;;6.87;6.37;;;32.10;43.70;;;;;;5082266;28;20461;-78
2022/07/25 08:30:26;;;;;;;7.20;5.60;;;32.20;43.40;;;;;;5085140;28;20409;-79
2022/07/25 08:32:55;;;;;;;6.63;6.10;;;32.30;43.30;;;;;;5084354;28;20481;-79
2022/07/25 08:35:23;;;;;;;6.67;6.17;;;32.40;43.20;;;;;;5077893;28;20473;-80
2022/07/25 08:37:51;;;;;;;6.23;5.63;;;32.50;43.00;;;;;;5064313;28;20502;-80
2022/07/25 08:40:22;;;;;;;6.60;6.10;;;32.60;43.00;;;;;;5080909;28;20470;-79
2022/07/25 08:42:50;;;;;;;7.63;5.90;;;32.70;42.90;;;;;;5083893;28;20446;-79
2022/07/25 08:45:19;;;;;;;7.93;5.57;;;32.80;42.70;;;;;;5082600;28;20430;-80
2022/07/25 08:47:47;;;;;;;6.30;5.83;;;32.90;42.70;;;;;;5081876;28;20947;-80
2022/07/25 08:50:16;;;;;;;6.40;5.97;;;33.10;42.40;;;;;;5083485;28;20476;-80
2022/07/25 08:52:44;;;;;;;5.43;5.03;;;33.20;42.30;;;;;;5082203;28;20449;-79
2022/07/25 08:55:15;;;;;;;5.40;5.00;;;33.10;42.20;;;;;;5065754;28;20466;-79
2022/07/25 08:57:45;;;;;;;6.20;5.70;;;33.10;42.20;;;;;;5063284;28;20451;-79
2022/07/25 09:00:16;;;;;;;6.27;5.87;;;33.20;42.10;;;;;;5076822;28;20502;-80
2022/07/25 09:02:50;;;;;;;5.80;5.40;;;33.10;42.00;;;;;;5080885;28;20442;-80
2022/07/25 09:05:18;;;;;;;6.17;5.67;;;33.20;42.00;;;;;;5079832;28;20477;-80
2022/07/25 09:07:46;;;;;;;6.47;5.97;;;33.10;41.90;;;;;;5082090;28;20477;-80
2022/07/25 09:10:15;;;;;;;6.43;5.43;;;33.20;42.00;;;;;;5079566;28;20524;-80
2022/07/25 09:12:52;;;;;;;5.80;5.30;;;33.30;42.10;;;;;;5079808;28;20444;-79
2022/07/25 09:15:28;;;;;;;6.17;5.67;;;33.50;41.90;;;;;;5068730;28;20501;-80
2022/07/25 09:17:56;;;;;;;5.87;5.47;;;33.50;41.70;;;;;;5084065;28;20444;-80
2022/07/25 09:20:24;;;;;;;5.00;4.70;;;33.50;41.70;;;;;;5080210;28;20476;-80
2022/07/25 09:22:52;;;;;;;6.47;5.40;;;33.70;41.50;;;;;;5063877;28;20501;-80
2022/07/25 09:25:22;;;;;;;6.27;5.83;;;33.60;41.40;;;;;;5075822;28;20434;-80
2022/07/25 09:27:51;;;;;;;5.83;5.43;;;33.60;41.60;;;;;;5081170;28;20504;-80
2022/07/25 09:30:19;;;;;;;6.27;5.87;;;33.60;41.50;;;;;;5075471;28;20531;-79
2022/07/25 09:32:47;;;;;;;5.57;5.23;;;33.70;41.60;;;;;;5067008;28;20423;-80
2022/07/25 09:35:15;;;;;;;5.83;5.43;;;33.70;41.60;;;;;;5079550;28;20484;-79
2022/07/25 09:37:43;;;;;;;5.80;5.40;;;33.80;41.40;;;;;;5080148;28;20484;-81
2022/07/25 09:40:13;;;;;;;4.87;4.57;;;33.90;41.20;;;;;;5081857;28;20534;-80
2022/07/25 09:42:41;;;;;;;5.93;5.57;;;34.00;41.20;;;;;;5079140;28;20470;-79
2022/07/25 09:45:12;;;;;;;5.97;5.47;;;34.00;41.00;;;;;;5072436;28;20995;-79
2022/07/25 09:47:50;;;;;;;6.87;4.93;;;34.10;41.00;;;;;;5074130;28;20418;-80
2022/07/25 09:50:19;;;;;;;5.90;5.50;;;34.10;41.00;;;;;;5077114;28;20454;-81
2022/07/25 09:52:47;;;;;;;5.13;4.83;;;34.10;41.00;;;;;;5077433;28;20552;-82
2022/07/25 09:55:15;;;;;;;5.00;4.70;;;34.10;41.00;;;;;;5079070;28;20544;-80
2022/07/25 09:57:44;;;;;;;5.93;5.53;;;34.10;41.00;;;;;;5076866;28;20446;-80
2022/07/25 10:00:15;;;;;;;5.30;4.90;;;34.10;40.90;;;;;;5076645;28;20473;-81
2022/07/25 10:02:48;;;;;;;5.63;5.33;;;34.10;40.80;;;;;;5080275;28;21013;-81
2022/07/25 10:05:20;;;;;;;5.20;4.90;;;34.10;41.00;;;;;;5078097;28;20497;-81
2022/07/25 10:07:49;;;;;;;5.20;4.90;;;34.00;41.00;;;;;;5078965;28;20415;-81
2022/07/25 10:10:21;;;;;;;5.73;5.33;;;34.00;41.20;;;;;;5079523;28;20432;-81
2022/07/25 10:13:01;;;;;;;5.60;5.30;;;34.00;41.10;;;;;;5081863;28;20476;-81
2022/07/25 10:15:55;;;;;;;5.80;5.40;;;34.00;41.20;;;;;;5080721;28;20500;-81
2022/07/25 10:18:24;;;;;;;5.20;5.00;;;34.10;41.20;;;;;;5081250;28;20449;-81
2022/07/25 10:20:55;;;;;;;5.70;5.27;;;34.10;41.10;;;;;;5079898;28;20448;-81
2022/07/25 10:23:24;;;;;;;5.13;4.83;;;34.30;41.10;;;;;;5080104;28;20960;-81
2022/07/25 10:26:02;;;;;;;5.13;4.73;;;34.50;40.90;;;;;;5077997;28;20453;-81
2022/07/25 10:28:42;;;;;;;4.90;4.60;;;34.50;40.60;;;;;;5080776;28;20497;-81
2022/07/25 10:31:26;;;;;;;5.23;4.83;;;34.60;40.50;;;;;;5080510;28;20469;-81
2022/07/25 10:33:56;;;;;;;5.30;4.90;;;34.60;40.60;;;;;;5064211;28;20484;-81
2022/07/25 10:36:27;;;;;;;4.87;4.57;;;34.60;40.40;;;;;;5078698;28;20445;-81
2022/07/25 10:38:57;;;;;;;5.10;4.80;;;34.70;40.40;;;;;;5079455;28;20440;-81
2022/07/25 10:41:26;;;;;;;5.43;5.13;;;34.90;40.40;;;;;;5081410;28;20475;-83
2022/07/25 10:43:56;;;;;;;5.40;5.00;;;35.10;40.10;;;;;;5081527;28;20536;-81
2022/07/25 10:46:26;;;;;;;4.90;4.60;;;35.00;39.70;;;;;;5081051;28;20532;-81
2022/07/25 10:48:58;;;;;;;5.20;4.90;;;34.90;39.80;;;;;;5079548;28;20458;-81
2022/07/25 10:51:27;;;;;;;5.00;4.80;;;34.90;40.00;;;;;;5080524;28;20438;-81
2022/07/25 10:53:55;;;;;;;5.40;4.63;;;34.90;40.00;;;;;;5079346;28;20555;-81
2022/07/25 10:56:24;;;;;;;5.27;5.03;;;34.90;40.20;;;;;;5079467;28;20513;-81
2022/07/25 10:58:53;;;;;;;5.83;5.33;;;35.00;40.20;;;;;;5081385;28;20887;-82
2022/07/25 11:01:23;;;;;;;4.97;4.70;;;35.10;39.90;;;;;;5081309;28;20472;-81
2022/07/25 11:03:53;;;;;;;5.50;5.20;;;35.30;39.70;;;;;;5080996;28;20467;-81
2022/07/25 11:06:32;;;;;;;4.70;4.43;;;35.40;39.60;;;;;;5079032;28;20544;-81
2022/07/25 11:09:00;;;;;;;4.47;4.27;;;35.40;39.10;;;;;;5059977;28;20462;-81
2022/07/25 11:11:36;;;;;;;5.23;4.90;;;35.30;39.50;;;;;;5060941;28;20504;-81
2022/07/25 11:14:04;;;;;;;4.50;4.30;;;35.20;39.30;;;;;;5061352;28;20518;-81
2022/07/25 11:16:31;;;;;;;5.40;5.00;;;35.10;39.40;;;;;;5061111;28;20502;-81
2022/07/25 11:19:01;;;;;;;4.97;4.67;;;35.10;39.60;;;;;;5062738;28;20438;-80
2022/07/25 11:21:28;;;;;;;4.90;4.60;;;35.00;39.60;;;;;;5080919;28;20448;-81
2022/07/25 11:23:56;;;;;;;4.50;4.30;;;35.00;39.80;;;;;;5074773;28;20481;-81
2022/07/25 11:26:24;;;;;;;5.87;4.97;;;35.00;39.90;;;;;;5066504;28;20481;-81
2022/07/25 11:28:52;;;;;;;4.80;4.60;;;34.90;39.70;;;;;;5066075;28;20470;-81
2022/07/25 11:31:22;;;;;;;5.33;4.90;;;34.90;40.00;;;;;;5065913;28;20445;-81
2022/07/25 11:33:50;;;;;;;5.03;4.63;;;34.90;40.00;;;;;;5067222;28;20451;-81
2022/07/25 11:36:19;;;;;;;5.20;4.87;;;34.90;39.80;;;;;;5065670;28;20466;-80
2022/07/25 11:38:48;;;;;;;5.10;4.70;;;35.00;40.00;;;;;;5076863;28;20443;-81
2022/07/25 11:41:15;;;;;;;6.07;5.53;;;35.00;39.90;;;;;;5086168;28;20505;-80
2022/07/25 11:43:48;;;;;;;5.17;4.87;;;35.10;39.90;;;;;;5082941;28;20477;-81
2022/07/25 11:46:16;;;;;;;5.03;4.70;;;35.20;39.70;;;;;;5081871;28;20472;-82
2022/07/25 11:48:45;;;;;;;4.97;4.60;;;35.20;39.60;;;;;;5082671;28;20499;-82
2022/07/25 11:51:14;;;;;;;5.93;5.53;;;35.20;39.50;;;;;;5080023;28;20430;-81
2022/07/25 11:53:48;;;;;;;5.10;4.80;;;35.10;39.80;;;;;;5078583;28;20860;-80
2022/07/25 11:56:17;;;;;;;5.47;5.07;;;35.10;39.90;;;;;;5073578;28;20470;-80
2022/07/25 11:59:05;;;;;;;5.37;4.97;;;35.20;40.20;;;;;;5058558;28;20929;-80
2022/07/25 12:01:34;;;;;;;4.77;4.53;;;35.20;39.70;;;;;;5060042;28;20474;-80
2022/07/25 12:04:10;;;;;;;4.90;4.60;;;35.30;39.70;;;;;;5060972;28;20466;-81
2022/07/25 12:06:38;;;;;;;5.40;5.00;;;35.30;39.60;;;;;;5058387;28;20454;-81
2022/07/25 12:09:15;;;;;;;5.30;5.00;;;35.30;39.60;;;;;;5063110;28;20503;-81
2022/07/25 12:11:46;;;;;;;5.03;4.70;;;35.40;39.60;;;;;;5076598;28;20441;-80
2022/07/25 12:14:14;;;;;;;5.73;5.43;;;35.30;39.70;;;;;;5059018;28;20501;-80
2022/07/25 12:16:42;;;;;;;5.23;4.93;;;35.30;39.90;;;;;;5058548;28;20475;-80
2022/07/25 12:19:19;;;;;;;5.00;4.70;;;35.20;39.80;;;;;;5058060;28;20453;-80
2022/07/25 12:21:47;;;;;;;5.67;5.37;;;35.40;39.80;;;;;;5058696;28;20466;-80
2022/07/25 12:24:16;;;;;;;4.60;4.40;;;35.40;39.60;;;;;;5057847;28;20478;-80
2022/07/25 12:26:44;;;;;;;5.30;5.00;;;35.50;39.80;;;;;;5069278;28;20435;-80
2022/07/25 12:29:12;;;;;;;5.67;5.37;;;35.60;39.70;;;;;;5078334;28;20507;-81
2022/07/25 12:31:40;;;;;;;5.43;4.77;;;35.70;39.50;;;;;;5077975;28;20461;-80
2022/07/25 12:34:08;;;;;;;6.93;5.20;;;35.70;39.40;;;;;;5078519;28;20489;-81
2022/07/25 12:36:42;;;;;;;5.10;4.80;;;35.70;39.40;;;;;;5078041;28;20433;-81
2022/07/25 12:39:10;;;;;;;5.43;5.13;;;35.80;39.40;;;;;;5078547;28;20486;-81
2022/07/25 12:41:41;;;;;;;5.00;4.80;;;35.80;39.10;;;;;;5076399;28;20500;-80
2022/07/25 12:44:09;;;;;;;5.37;5.07;;;35.70;39.30;;;;;;5072298;28;20451;-80
2022/07/25 12:46:39;;;;;;;4.90;4.53;;;35.70;39.30;;;;;;5057343;28;20438;-79
2022/07/25 12:49:06;;;;;;;5.47;5.07;;;35.70;39.20;;;;;;5057852;28;20427;-80
2022/07/25 12:51:35;;;;;;;5.13;4.73;;;35.70;39.20;;;;;;5057665;28;20435;-80
2022/07/25 12:54:03;;;;;;;5.30;5.07;;;35.70;39.40;;;;;;5057501;28;20492;-80
2022/07/25 12:56:31;;;;;;;5.50;4.77;;;35.60;39.50;;;;;;5056917;28;20446;-80
2022/07/25 12:59:01;;;;;;;5.10;4.80;;;35.40;39.60;;;;;;5065874;28;20442;-80